sensor_id;sensor_type;location;lat;lon;timestamp;pressure;altitude;pressure_sealevel;temperature;humidity
77019;BME280;66044;53.142;17.962;2023-07-16T00:00:56;100475.20;;;22.17;48.76
77019;BME280;66044;53.142;17.962;2023-07-16T00:03:43;100480.55;;;22.17;48.68
77019;BME280;66044;53.142;17.962;2023-07-16T00:06:09;100481.73;;;22.14;48.75
77019;BME280;66044;53.142;17.962;2023-07-16T00:08:36;100478.80;;;22.11;48.74
77019;BME280;66044;53.142;17.962;2023-07-16T00:11:03;100472.05;;;22.06;48.87
77019;BME280;66044;53.142;17.962;2023-07-16T00:13:29;100468.84;;;22.00;48.98
77019;BME280;66044;53.142;17.962;2023-07-16T00:15:56;100462.79;;;21.95;48.97
77019;BME280;66044;53.142;17.962;2023-07-16T00:18:22;100460.50;;;21.88;49.11
77019;BME280;66044;53.142;17.962;2023-07-16T00:20:49;100460.24;;;21.83;49.23
77019;BME280;66044;53.142;17.962;2023-07-16T00:23:15;100456.01;;;21.78;49.41
77019;BME280;66044;53.142;17.962;2023-07-16T00:25:42;100448.15;;;21.74;49.52
77019;BME280;66044;53.142;17.962;2023-07-16T00:28:08;100443.11;;;21.71;49.65
77019;BME280;66044;53.142;17.962;2023-07-16T00:30:34;100447.42;;;21.69;49.76
77019;BME280;66044;53.142;17.962;2023-07-16T00:33:01;100443.56;;;21.65;49.90
77019;BME280;66044;53.142;17.962;2023-07-16T00:35:27;100439.99;;;21.63;50.03
77019;BME280;66044;53.142;17.962;2023-07-16T00:37:54;100440.34;;;21.58;50.12
77019;BME280;66044;53.142;17.962;2023-07-16T00:40:20;100436.65;;;21.53;50.21
77019;BME280;66044;53.142;17.962;2023-07-16T00:42:46;100437.40;;;21.48;50.36
77019;BME280;66044;53.142;17.962;2023-07-16T00:45:13;100435.79;;;21.45;50.56
77019;BME280;66044;53.142;17.962;2023-07-16T00:47:42;100431.45;;;21.43;50.67
77019;BME280;66044;53.142;17.962;2023-07-16T00:50:10;100434.73;;;21.40;50.91
77019;BME280;66044;53.142;17.962;2023-07-16T00:52:38;100436.94;;;21.38;50.89
77019;BME280;66044;53.142;17.962;2023-07-16T00:55:06;100440.92;;;21.37;50.98
77019;BME280;66044;53.142;17.962;2023-07-16T00:57:33;100440.70;;;21.36;51.11
77019;BME280;66044;53.142;17.962;2023-07-16T01:00:00;100441.25;;;21.36;51.20
77019;BME280;66044;53.142;17.962;2023-07-16T01:02:26;100433.55;;;21.35;51.23
77019;BME280;66044;53.142;17.962;2023-07-16T01:04:53;100428.16;;;21.35;51.38
77019;BME280;66044;53.142;17.962;2023-07-16T01:07:23;100429.73;;;21.35;51.38
77019;BME280;66044;53.142;17.962;2023-07-16T01:09:53;100424.90;;;21.34;51.39
77019;BME280;66044;53.142;17.962;2023-07-16T01:12:21;100421.92;;;21.33;51.54
77019;BME280;66044;53.142;17.962;2023-07-16T01:14:50;100421.94;;;21.31;51.63
77019;BME280;66044;53.142;17.962;2023-07-16T01:17:18;100419.38;;;21.29;51.58
77019;BME280;66044;53.142;17.962;2023-07-16T01:19:44;100424.02;;;21.26;51.61
77019;BME280;66044;53.142;17.962;2023-07-16T01:30:32;100436.27;;;21.17;52.05
77019;BME280;66044;53.142;17.962;2023-07-16T01:33:01;100433.37;;;21.15;52.14
77019;BME280;66044;53.142;17.962;2023-07-16T01:35:28;100431.96;;;21.15;52.19
77019;BME280;66044;53.142;17.962;2023-07-16T01:37:54;100435.63;;;21.13;52.29
77019;BME280;66044;53.142;17.962;2023-07-16T01:40:21;100434.97;;;21.12;52.57
77019;BME280;66044;53.142;17.962;2023-07-16T01:42:47;100433.17;;;21.12;52.40
77019;BME280;66044;53.142;17.962;2023-07-16T01:45:14;100432.63;;;21.11;52.51
77019;BME280;66044;53.142;17.962;2023-07-16T01:50:19;100423.63;;;21.13;52.57
77019;BME280;66044;53.142;17.962;2023-07-16T01:52:46;100413.82;;;21.12;52.52
77019;BME280;66044;53.142;17.962;2023-07-16T01:55:12;100409.53;;;21.11;52.63
77019;BME280;66044;53.142;17.962;2023-07-16T01:57:38;100402.51;;;21.10;52.73
77019;BME280;66044;53.142;17.962;2023-07-16T02:00:06;100399.39;;;21.10;52.87
77019;BME280;66044;53.142;17.962;2023-07-16T02:02:34;100390.25;;;21.11;53.08
77019;BME280;66044;53.142;17.962;2023-07-16T02:05:00;100394.67;;;21.13;53.20
77019;BME280;66044;53.142;17.962;2023-07-16T02:07:26;100396.38;;;21.14;53.30
77019;BME280;66044;53.142;17.962;2023-07-16T02:09:55;100399.81;;;21.15;53.34
77019;BME280;66044;53.142;17.962;2023-07-16T02:12:21;100402.46;;;21.18;53.40
77019;BME280;66044;53.142;17.962;2023-07-16T02:14:47;100403.47;;;21.19;53.41
77019;BME280;66044;53.142;17.962;2023-07-16T02:17:14;100406.25;;;21.22;53.46
77019;BME280;66044;53.142;17.962;2023-07-16T02:19:40;100404.83;;;21.25;53.40
77019;BME280;66044;53.142;17.962;2023-07-16T02:22:07;100403.92;;;21.28;53.45
77019;BME280;66044;53.142;17.962;2023-07-16T02:24:34;100401.41;;;21.29;53.47
77019;BME280;66044;53.142;17.962;2023-07-16T02:27:01;100393.69;;;21.30;53.50
77019;BME280;66044;53.142;17.962;2023-07-16T02:29:28;100398.21;;;21.31;53.37
77019;BME280;66044;53.142;17.962;2023-07-16T02:31:55;100398.92;;;21.29;53.35
77019;BME280;66044;53.142;17.962;2023-07-16T02:34:21;100394.44;;;21.26;53.57
77019;BME280;66044;53.142;17.962;2023-07-16T02:36:47;100402.41;;;21.22;53.66
77019;BME280;66044;53.142;17.962;2023-07-16T02:39:14;100400.40;;;21.20;53.64
77019;BME280;66044;53.142;17.962;2023-07-16T02:41:40;100394.58;;;21.19;53.90
77019;BME280;66044;53.142;17.962;2023-07-16T02:44:08;100393.96;;;21.17;53.95
77019;BME280;66044;53.142;17.962;2023-07-16T02:46:35;100396.77;;;21.16;54.01
77019;BME280;66044;53.142;17.962;2023-07-16T02:49:02;100400.43;;;21.15;54.13
77019;BME280;66044;53.142;17.962;2023-07-16T02:51:29;100395.90;;;21.15;54.40
77019;BME280;66044;53.142;17.962;2023-07-16T02:53:55;100398.87;;;21.14;54.35
77019;BME280;66044;53.142;17.962;2023-07-16T02:56:22;100404.25;;;21.15;54.34
77019;BME280;66044;53.142;17.962;2023-07-16T02:58:48;100408.39;;;21.14;54.64
77019;BME280;66044;53.142;17.962;2023-07-16T03:01:15;100404.34;;;21.14;54.78
77019;BME280;66044;53.142;17.962;2023-07-16T03:03:41;100404.72;;;21.14;54.76
77019;BME280;66044;53.142;17.962;2023-07-16T03:06:08;100397.70;;;21.13;54.75
77019;BME280;66044;53.142;17.962;2023-07-16T03:08:34;100396.62;;;21.13;54.72
77019;BME280;66044;53.142;17.962;2023-07-16T03:11:01;100398.24;;;21.13;54.91
77019;BME280;66044;53.142;17.962;2023-07-16T03:13:27;100398.64;;;21.15;54.93
77019;BME280;66044;53.142;17.962;2023-07-16T03:15:54;100400.52;;;21.17;54.96
77019;BME280;66044;53.142;17.962;2023-07-16T03:18:20;100400.89;;;21.20;54.96
77019;BME280;66044;53.142;17.962;2023-07-16T03:20:47;100396.09;;;21.22;55.10
77019;BME280;66044;53.142;17.962;2023-07-16T03:23:13;100393.32;;;21.28;55.11
77019;BME280;66044;53.142;17.962;2023-07-16T03:25:40;100393.66;;;21.34;55.25
77019;BME280;66044;53.142;17.962;2023-07-16T03:28:06;100390.92;;;21.41;55.13
77019;BME280;66044;53.142;17.962;2023-07-16T03:30:32;100385.75;;;21.52;54.89
77019;BME280;66044;53.142;17.962;2023-07-16T03:32:59;100385.84;;;21.64;54.83
77019;BME280;66044;53.142;17.962;2023-07-16T03:35:26;100385.69;;;21.78;54.59
77019;BME280;66044;53.142;17.962;2023-07-16T03:37:52;100380.20;;;21.93;54.43
77019;BME280;66044;53.142;17.962;2023-07-16T03:40:25;100375.86;;;22.10;54.22
77019;BME280;66044;53.142;17.962;2023-07-16T03:42:52;100375.94;;;22.27;53.94
77019;BME280;66044;53.142;17.962;2023-07-16T03:45:18;100375.76;;;22.46;53.60
77019;BME280;66044;53.142;17.962;2023-07-16T03:47:45;100379.75;;;22.66;53.27
77019;BME280;66044;53.142;17.962;2023-07-16T03:50:11;100382.54;;;22.90;53.03
77019;BME280;66044;53.142;17.962;2023-07-16T03:52:38;100385.72;;;23.15;52.48
77019;BME280;66044;53.142;17.962;2023-07-16T03:55:05;100382.44;;;23.37;52.03
77019;BME280;66044;53.142;17.962;2023-07-16T03:57:33;100384.62;;;23.60;51.79
77019;BME280;66044;53.142;17.962;2023-07-16T03:59:59;100380.59;;;23.89;51.20
77019;BME280;66044;53.142;17.962;2023-07-16T04:02:26;100384.14;;;24.22;50.37
77019;BME280;66044;53.142;17.962;2023-07-16T04:04:52;100376.51;;;24.23;50.36
77019;BME280;66044;53.142;17.962;2023-07-16T04:07:19;100381.95;;;24.21;50.42
77019;BME280;66044;53.142;17.962;2023-07-16T04:09:45;100379.49;;;24.11;50.17
77019;BME280;66044;53.142;17.962;2023-07-16T04:12:12;100383.17;;;24.00;50.48
77019;BME280;66044;53.142;17.962;2023-07-16T04:14:38;100379.80;;;23.92;50.41
77019;BME280;66044;53.142;17.962;2023-07-16T04:17:05;100379.48;;;23.90;50.48
77019;BME280;66044;53.142;17.962;2023-07-16T04:19:31;100383.57;;;23.89;50.55
77019;BME280;66044;53.142;17.962;2023-07-16T04:21:58;100382.89;;;23.87;50.68
77019;BME280;66044;53.142;17.962;2023-07-16T04:24:24;100380.13;;;23.84;50.94
77019;BME280;66044;53.142;17.962;2023-07-16T04:26:53;100383.32;;;23.86;50.92
77019;BME280;66044;53.142;17.962;2023-07-16T04:29:20;100393.02;;;23.87;50.76
77019;BME280;66044;53.142;17.962;2023-07-16T04:31:46;100402.58;;;23.91;50.83
77019;BME280;66044;53.142;17.962;2023-07-16T04:34:13;100412.58;;;23.97;50.78
77019;BME280;66044;53.142;17.962;2023-07-16T04:36:39;100433.98;;;24.04;50.71
77019;BME280;66044;53.142;17.962;2023-07-16T04:39:06;100467.64;;;24.15;50.64
77019;BME280;66044;53.142;17.962;2023-07-16T04:41:32;100483.92;;;24.26;50.56
77019;BME280;66044;53.142;17.962;2023-07-16T04:43:58;100480.39;;;24.34;50.36
77019;BME280;66044;53.142;17.962;2023-07-16T04:46:25;100480.85;;;24.49;50.18
77019;BME280;66044;53.142;17.962;2023-07-16T04:48:51;100486.34;;;24.64;49.87
77019;BME280;66044;53.142;17.962;2023-07-16T04:51:18;100494.68;;;24.66;49.74
77019;BME280;66044;53.142;17.962;2023-07-16T04:53:44;100484.95;;;24.70;49.57
77019;BME280;66044;53.142;17.962;2023-07-16T04:56:15;100489.93;;;24.72;49.58
77019;BME280;66044;53.142;17.962;2023-07-16T04:58:42;100520.91;;;24.80;49.40
77019;BME280;66044;53.142;17.962;2023-07-16T05:01:09;100526.60;;;25.10;49.25
77019;BME280;66044;53.142;17.962;2023-07-16T05:03:36;100520.44;;;25.65;48.38
77019;BME280;66044;53.142;17.962;2023-07-16T05:06:03;100523.22;;;26.47;47.43
77019;BME280;66044;53.142;17.962;2023-07-16T05:08:30;100523.73;;;27.42;45.94
77019;BME280;66044;53.142;17.962;2023-07-16T05:10:56;100521.29;;;29.37;43.25
77019;BME280;66044;53.142;17.962;2023-07-16T05:13:23;100527.65;;;30.68;41.13
77019;BME280;66044;53.142;17.962;2023-07-16T05:15:49;100529.27;;;32.90;38.14
77019;BME280;66044;53.142;17.962;2023-07-16T05:18:16;100522.23;;;34.34;35.81
77019;BME280;66044;53.142;17.962;2023-07-16T05:20:43;100521.90;;;35.05;34.22
77019;BME280;66044;53.142;17.962;2023-07-16T05:23:10;100519.11;;;36.62;32.28
77019;BME280;66044;53.142;17.962;2023-07-16T05:25:36;100516.67;;;37.86;30.27
77019;BME280;66044;53.142;17.962;2023-07-16T05:28:03;100523.84;;;39.11;28.40
77019;BME280;66044;53.142;17.962;2023-07-16T05:30:29;100527.05;;;40.54;27.42
77019;BME280;66044;53.142;17.962;2023-07-16T05:32:55;100525.85;;;41.80;25.41
77019;BME280;66044;53.142;17.962;2023-07-16T05:35:22;100539.81;;;42.86;24.32
77019;BME280;66044;53.142;17.962;2023-07-16T05:37:48;100542.67;;;43.94;23.07
77019;BME280;66044;53.142;17.962;2023-07-16T05:40:15;100545.90;;;44.76;21.81
77019;BME280;66044;53.142;17.962;2023-07-16T05:42:41;100551.81;;;45.51;20.98
77019;BME280;66044;53.142;17.962;2023-07-16T05:45:08;100544.42;;;46.35;19.98
77019;BME280;66044;53.142;17.962;2023-07-16T05:47:35;100544.14;;;47.18;19.48
77019;BME280;66044;53.142;17.962;2023-07-16T05:50:01;100549.05;;;48.03;18.53
77019;BME280;66044;53.142;17.962;2023-07-16T05:52:28;100555.11;;;49.03;17.73
77019;BME280;66044;53.142;17.962;2023-07-16T05:54:54;100554.52;;;49.64;16.62
77019;BME280;66044;53.142;17.962;2023-07-16T05:57:21;100558.30;;;50.08;16.38
77019;BME280;66044;53.142;17.962;2023-07-16T05:59:47;100561.93;;;50.59;15.52
77019;BME280;66044;53.142;17.962;2023-07-16T06:02:13;100564.51;;;51.21;14.93
77019;BME280;66044;53.142;17.962;2023-07-16T06:04:40;100579.22;;;51.91;14.28
77019;BME280;66044;53.142;17.962;2023-07-16T06:07:06;100587.20;;;52.40;13.87
77019;BME280;66044;53.142;17.962;2023-07-16T06:09:33;100586.40;;;52.92;13.35
77019;BME280;66044;53.142;17.962;2023-07-16T06:11:59;100591.27;;;53.43;13.05
77019;BME280;66044;53.142;17.962;2023-07-16T06:14:26;100593.34;;;53.94;12.66
77019;BME280;66044;53.142;17.962;2023-07-16T06:16:52;100607.02;;;54.36;12.12
77019;BME280;66044;53.142;17.962;2023-07-16T06:19:19;100612.84;;;54.79;12.19
77019;BME280;66044;53.142;17.962;2023-07-16T06:21:45;100624.46;;;55.47;11.79
77019;BME280;66044;53.142;17.962;2023-07-16T06:24:11;100625.11;;;56.24;11.42
77019;BME280;66044;53.142;17.962;2023-07-16T06:26:38;100618.14;;;56.82;10.61
77019;BME280;66044;53.142;17.962;2023-07-16T06:29:04;100620.51;;;57.32;10.42
77019;BME280;66044;53.142;17.962;2023-07-16T06:31:31;100621.71;;;57.65;9.94
77019;BME280;66044;53.142;17.962;2023-07-16T06:33:57;100625.95;;;57.88;9.78
77019;BME280;66044;53.142;17.962;2023-07-16T06:36:23;100626.05;;;58.06;9.64
77019;BME280;66044;53.142;17.962;2023-07-16T06:38:50;100627.38;;;58.14;9.52
77019;BME280;66044;53.142;17.962;2023-07-16T06:41:17;100623.39;;;58.52;9.31
77019;BME280;66044;53.142;17.962;2023-07-16T06:43:44;100624.35;;;58.83;9.03
77019;BME280;66044;53.142;17.962;2023-07-16T06:46:10;100618.64;;;59.12;8.92
77019;BME280;66044;53.142;17.962;2023-07-16T06:48:37;100619.31;;;59.46;8.94
77019;BME280;66044;53.142;17.962;2023-07-16T06:51:03;100627.61;;;59.95;8.78
77019;BME280;66044;53.142;17.962;2023-07-16T06:53:30;100624.79;;;60.54;8.67
77019;BME280;66044;53.142;17.962;2023-07-16T06:55:56;100628.13;;;61.10;8.25
77019;BME280;66044;53.142;17.962;2023-07-16T06:58:31;100625.33;;;61.52;7.91
77019;BME280;66044;53.142;17.962;2023-07-16T07:00:58;100624.51;;;61.60;8.15
77019;BME280;66044;53.142;17.962;2023-07-16T07:03:24;100627.83;;;61.40;7.87
77019;BME280;66044;53.142;17.962;2023-07-16T07:05:51;100624.94;;;60.14;8.29
77019;BME280;66044;53.142;17.962;2023-07-16T07:08:17;100631.84;;;59.57;8.23
77019;BME280;66044;53.142;17.962;2023-07-16T07:10:44;100627.01;;;59.12;8.70
77019;BME280;66044;53.142;17.962;2023-07-16T07:13:10;100616.42;;;57.68;9.22
77019;BME280;66044;53.142;17.962;2023-07-16T07:15:37;100616.77;;;56.45;9.62
77019;BME280;66044;53.142;17.962;2023-07-16T07:18:03;100616.91;;;56.44;9.64
77019;BME280;66044;53.142;17.962;2023-07-16T07:20:29;100617.55;;;56.68;9.54
77019;BME280;66044;53.142;17.962;2023-07-16T07:22:56;100612.76;;;56.29;9.87
77019;BME280;66044;53.142;17.962;2023-07-16T07:25:22;100613.39;;;55.21;10.25
77019;BME280;66044;53.142;17.962;2023-07-16T07:27:49;100617.11;;;55.29;10.27
77019;BME280;66044;53.142;17.962;2023-07-16T07:30:15;100615.40;;;54.49;10.80
77019;BME280;66044;53.142;17.962;2023-07-16T07:32:41;100608.41;;;52.65;11.59
77019;BME280;66044;53.142;17.962;2023-07-16T07:35:08;100608.40;;;52.17;12.15
77019;BME280;66044;53.142;17.962;2023-07-16T07:37:35;100610.66;;;52.46;11.76
77019;BME280;66044;53.142;17.962;2023-07-16T07:40:01;100610.05;;;52.32;12.31
77019;BME280;66044;53.142;17.962;2023-07-16T07:42:29;100608.51;;;52.97;11.98
77019;BME280;66044;53.142;17.962;2023-07-16T07:44:56;100605.03;;;53.11;11.90
77019;BME280;66044;53.142;17.962;2023-07-16T07:47:22;100604.58;;;52.93;12.10
77019;BME280;66044;53.142;17.962;2023-07-16T07:49:49;100602.57;;;52.14;12.11
77019;BME280;66044;53.142;17.962;2023-07-16T07:52:15;100603.20;;;50.98;12.95
77019;BME280;66044;53.142;17.962;2023-07-16T07:54:42;100596.89;;;49.45;13.68
77019;BME280;66044;53.142;17.962;2023-07-16T07:57:08;100594.29;;;47.75;14.63
77019;BME280;66044;53.142;17.962;2023-07-16T07:59:35;100598.45;;;46.23;15.94
77019;BME280;66044;53.142;17.962;2023-07-16T08:02:02;100604.83;;;44.97;16.77
77019;BME280;66044;53.142;17.962;2023-07-16T08:04:29;100601.09;;;43.88;17.51
77019;BME280;66044;53.142;17.962;2023-07-16T08:06:58;100608.30;;;42.87;18.21
77019;BME280;66044;53.142;17.962;2023-07-16T08:09:25;100612.06;;;41.88;18.87
77019;BME280;66044;53.142;17.962;2023-07-16T08:11:52;100615.95;;;40.95;19.93
77019;BME280;66044;53.142;17.962;2023-07-16T08:14:18;100617.33;;;40.10;20.60
77019;BME280;66044;53.142;17.962;2023-07-16T08:16:45;100619.66;;;39.29;21.42
77019;BME280;66044;53.142;17.962;2023-07-16T08:19:11;100597.66;;;38.61;22.17
77019;BME280;66044;53.142;17.962;2023-07-16T08:21:38;100586.73;;;37.98;22.66
77019;BME280;66044;53.142;17.962;2023-07-16T08:24:05;100586.59;;;37.52;23.40
77019;BME280;66044;53.142;17.962;2023-07-16T08:26:32;100581.09;;;37.06;23.75
77019;BME280;66044;53.142;17.962;2023-07-16T08:28:59;100582.37;;;36.66;24.36
77019;BME280;66044;53.142;17.962;2023-07-16T08:31:27;100590.82;;;36.35;24.67
77019;BME280;66044;53.142;17.962;2023-07-16T08:33:54;100598.34;;;36.22;24.70
77019;BME280;66044;53.142;17.962;2023-07-16T08:36:21;100605.92;;;36.15;24.90
77019;BME280;66044;53.142;17.962;2023-07-16T08:38:47;100609.48;;;36.08;25.21
77019;BME280;66044;53.142;17.962;2023-07-16T08:41:14;100624.52;;;36.09;25.31
77019;BME280;66044;53.142;17.962;2023-07-16T08:43:41;100635.95;;;36.05;25.44
77019;BME280;66044;53.142;17.962;2023-07-16T08:46:08;100634.52;;;35.99;25.45
77019;BME280;66044;53.142;17.962;2023-07-16T08:48:35;100640.38;;;35.95;25.52
77019;BME280;66044;53.142;17.962;2023-07-16T08:51:02;100638.55;;;35.91;25.69
77019;BME280;66044;53.142;17.962;2023-07-16T08:53:30;100636.49;;;35.76;25.86
77019;BME280;66044;53.142;17.962;2023-07-16T08:55:57;100642.14;;;35.63;26.20
77019;BME280;66044;53.142;17.962;2023-07-16T08:58:24;100660.20;;;35.49;26.42
77019;BME280;66044;53.142;17.962;2023-07-16T09:00:51;100665.04;;;35.28;26.65
77019;BME280;66044;53.142;17.962;2023-07-16T09:03:19;100675.95;;;35.04;27.03
77019;BME280;66044;53.142;17.962;2023-07-16T09:05:45;100685.36;;;34.75;27.57
77019;BME280;66044;53.142;17.962;2023-07-16T09:08:12;100688.77;;;34.60;27.92
77019;BME280;66044;53.142;17.962;2023-07-16T09:10:42;100697.55;;;34.52;28.42
77019;BME280;66044;53.142;17.962;2023-07-16T09:13:09;100707.09;;;34.44;28.59
77019;BME280;66044;53.142;17.962;2023-07-16T09:15:36;100716.27;;;34.34;28.85
77019;BME280;66044;53.142;17.962;2023-07-16T09:18:03;100727.50;;;34.17;29.11
77019;BME280;66044;53.142;17.962;2023-07-16T09:20:30;100728.14;;;34.04;29.43
77019;BME280;66044;53.142;17.962;2023-07-16T09:22:57;100736.31;;;33.84;29.71
77019;BME280;66044;53.142;17.962;2023-07-16T09:25:29;100741.92;;;33.64;30.05
77019;BME280;66044;53.142;17.962;2023-07-16T09:27:57;100745.41;;;33.44;30.55
77019;BME280;66044;53.142;17.962;2023-07-16T09:30:24;100742.05;;;33.23;30.74
77019;BME280;66044;53.142;17.962;2023-07-16T09:32:51;100749.70;;;32.92;31.29
77019;BME280;66044;53.142;17.962;2023-07-16T09:35:17;100758.58;;;32.69;31.44
77019;BME280;66044;53.142;17.962;2023-07-16T09:37:44;100759.90;;;32.41;31.60
77019;BME280;66044;53.142;17.962;2023-07-16T09:40:11;100762.77;;;32.11;32.07
77019;BME280;66044;53.142;17.962;2023-07-16T09:42:42;100770.20;;;31.80;32.47
77019;BME280;66044;53.142;17.962;2023-07-16T09:45:19;100774.20;;;31.40;32.72
77019;BME280;66044;53.142;17.962;2023-07-16T09:47:45;100776.55;;;30.98;33.57
77019;BME280;66044;53.142;17.962;2023-07-16T09:50:12;100774.19;;;30.62;34.00
77019;BME280;66044;53.142;17.962;2023-07-16T09:52:39;100786.95;;;30.33;34.76
77019;BME280;66044;53.142;17.962;2023-07-16T09:55:09;100783.45;;;30.06;36.00
77019;BME280;66044;53.142;17.962;2023-07-16T09:57:39;100780.52;;;29.72;37.14
77019;BME280;66044;53.142;17.962;2023-07-16T10:00:12;100783.73;;;29.37;37.91
77019;BME280;66044;53.142;17.962;2023-07-16T10:02:40;100789.52;;;29.05;38.80
77019;BME280;66044;53.142;17.962;2023-07-16T10:05:18;100791.36;;;28.82;40.17
77019;BME280;66044;53.142;17.962;2023-07-16T10:07:52;100802.27;;;28.68;41.58
77019;BME280;66044;53.142;17.962;2023-07-16T10:10:20;100796.20;;;28.63;42.00
77019;BME280;66044;53.142;17.962;2023-07-16T10:13:01;100796.88;;;28.59;42.31
77019;BME280;66044;53.142;17.962;2023-07-16T10:15:29;100794.75;;;28.59;42.90
77019;BME280;66044;53.142;17.962;2023-07-16T10:17:56;100795.64;;;28.58;43.26
77019;BME280;66044;53.142;17.962;2023-07-16T10:20:34;100792.91;;;28.55;43.37
77019;BME280;66044;53.142;17.962;2023-07-16T10:23:11;100790.46;;;28.47;43.41
77019;BME280;66044;53.142;17.962;2023-07-16T10:25:58;100795.80;;;28.39;43.45
77019;BME280;66044;53.142;17.962;2023-07-16T10:28:24;100794.91;;;28.15;44.24
77019;BME280;66044;53.142;17.962;2023-07-16T10:30:51;100781.20;;;27.86;44.67
77019;BME280;66044;53.142;17.962;2023-07-16T10:33:18;100774.31;;;27.61;44.91
77019;BME280;66044;53.142;17.962;2023-07-16T10:35:45;100775.01;;;27.42;45.45
77019;BME280;66044;53.142;17.962;2023-07-16T10:38:12;100775.08;;;27.23;45.83
77019;BME280;66044;53.142;17.962;2023-07-16T10:40:43;100773.15;;;26.98;46.71
77019;BME280;66044;53.142;17.962;2023-07-16T10:43:14;100760.88;;;26.79;47.63
77019;BME280;66044;53.142;17.962;2023-07-16T10:45:41;100768.73;;;26.68;48.57
77019;BME280;66044;53.142;17.962;2023-07-16T10:48:07;100770.89;;;26.54;48.89
77019;BME280;66044;53.142;17.962;2023-07-16T10:50:35;100788.48;;;26.41;49.64
77019;BME280;66044;53.142;17.962;2023-07-16T10:53:02;100782.94;;;26.32;50.24
77019;BME280;66044;53.142;17.962;2023-07-16T10:55:30;100775.39;;;26.32;50.74
77019;BME280;66044;53.142;17.962;2023-07-16T10:57:58;100778.05;;;26.33;51.28
77019;BME280;66044;53.142;17.962;2023-07-16T11:00:30;100782.54;;;26.42;51.77
77019;BME280;66044;53.142;17.962;2023-07-16T11:02:56;100788.89;;;26.56;52.13
77019;BME280;66044;53.142;17.962;2023-07-16T11:05:23;100787.29;;;26.75;52.16
77019;BME280;66044;53.142;17.962;2023-07-16T11:07:49;100787.48;;;26.86;51.86
77019;BME280;66044;53.142;17.962;2023-07-16T11:10:16;100780.33;;;26.92;52.01
77019;BME280;66044;53.142;17.962;2023-07-16T11:12:43;100781.04;;;27.07;51.69
77019;BME280;66044;53.142;17.962;2023-07-16T11:15:10;100784.77;;;27.28;51.57
77019;BME280;66044;53.142;17.962;2023-07-16T11:17:38;100793.92;;;27.56;51.01
77019;BME280;66044;53.142;17.962;2023-07-16T11:20:08;100795.86;;;27.78;50.87
77019;BME280;66044;53.142;17.962;2023-07-16T11:22:37;100785.40;;;27.98;50.02
77019;BME280;66044;53.142;17.962;2023-07-16T11:25:11;100790.95;;;28.07;49.86
77019;BME280;66044;53.142;17.962;2023-07-16T11:27:40;100790.32;;;28.16;48.82
77019;BME280;66044;53.142;17.962;2023-07-16T11:30:11;100788.77;;;28.09;48.28
77019;BME280;66044;53.142;17.962;2023-07-16T11:32:41;100789.02;;;28.11;48.20
77019;BME280;66044;53.142;17.962;2023-07-16T11:35:15;100777.02;;;28.06;48.00
77019;BME280;66044;53.142;17.962;2023-07-16T11:37:42;100778.81;;;28.06;48.16
77019;BME280;66044;53.142;17.962;2023-07-16T11:40:11;100790.95;;;28.10;48.17
77019;BME280;66044;53.142;17.962;2023-07-16T11:42:38;100801.19;;;28.19;47.84
77019;BME280;66044;53.142;17.962;2023-07-16T11:45:20;100797.94;;;28.25;46.96
77019;BME280;66044;53.142;17.962;2023-07-16T11:47:46;100797.39;;;28.32;47.04
77019;BME280;66044;53.142;17.962;2023-07-16T11:50:13;100793.96;;;28.35;46.82
77019;BME280;66044;53.142;17.962;2023-07-16T11:52:40;100793.58;;;28.33;46.58
77019;BME280;66044;53.142;17.962;2023-07-16T11:55:07;100789.64;;;28.37;46.45
77019;BME280;66044;53.142;17.962;2023-07-16T11:57:34;100796.02;;;28.42;45.96
77019;BME280;66044;53.142;17.962;2023-07-16T12:00:03;100798.25;;;28.49;45.94
77019;BME280;66044;53.142;17.962;2023-07-16T12:02:30;100797.52;;;28.57;45.79
77019;BME280;66044;53.142;17.962;2023-07-16T12:04:56;100797.67;;;28.61;45.71
77019;BME280;66044;53.142;17.962;2023-07-16T12:07:34;100796.88;;;28.66;45.33
77019;BME280;66044;53.142;17.962;2023-07-16T12:10:02;100795.60;;;28.79;45.00
77019;BME280;66044;53.142;17.962;2023-07-16T12:12:29;100799.38;;;28.93;44.79
77019;BME280;66044;53.142;17.962;2023-07-16T12:14:56;100795.20;;;29.04;44.35
77019;BME280;66044;53.142;17.962;2023-07-16T12:17:22;100796.70;;;29.19;43.88
77019;BME280;66044;53.142;17.962;2023-07-16T12:19:49;100797.55;;;29.33;43.54
77019;BME280;66044;53.142;17.962;2023-07-16T12:22:17;100794.13;;;29.49;43.24
77019;BME280;66044;53.142;17.962;2023-07-16T12:24:46;100791.89;;;29.67;43.02
77019;BME280;66044;53.142;17.962;2023-07-16T12:27:14;100795.17;;;29.81;42.62
77019;BME280;66044;53.142;17.962;2023-07-16T12:29:42;100799.66;;;29.90;42.38
77019;BME280;66044;53.142;17.962;2023-07-16T12:32:09;100797.39;;;29.94;42.39
77019;BME280;66044;53.142;17.962;2023-07-16T12:34:36;100798.48;;;30.03;42.33
77019;BME280;66044;53.142;17.962;2023-07-16T12:37:02;100799.26;;;30.17;42.04
77019;BME280;66044;53.142;17.962;2023-07-16T12:39:29;100798.19;;;30.31;41.92
77019;BME280;66044;53.142;17.962;2023-07-16T12:41:55;100804.08;;;30.47;41.56
77019;BME280;66044;53.142;17.962;2023-07-16T12:44:24;100807.72;;;30.55;41.28
77019;BME280;66044;53.142;17.962;2023-07-16T12:46:50;100804.54;;;30.70;41.25
77019;BME280;66044;53.142;17.962;2023-07-16T12:49:18;100803.55;;;30.93;40.89
77019;BME280;66044;53.142;17.962;2023-07-16T12:51:45;100808.08;;;31.11;40.17